CheckWX is a tool to help pilots better visualize weather data.  It is not intended as a substitute for an official pre-flight weather briefing.

12:25:12 UTC

CYMT TAF
Chapais Airport
Chibougamau, Canada
TAF CYMT 221139Z 2212/2224 VRB03KT 2SM -SNRA BR OVC005 TEMPO 2212/2216 6SM -RA BR OVC010 BECMG 2213/2215 35010KT FM221600 35010G20KT 11/2SM -SN OVC006 TEMPO 2216/2220 3SM -SN OVC010 FM222000 36015G25KT P6SM SCT015 OVC025 TEMPO 2220/2224 21/2SM -SN BLSN BKN015 OVC025 RMK FCST BASED ON AUTO OBS. NXT FCST BY 221800Z

Mar-22@
12:00 UTC

Mar-22 @ 12:00 UTC

Mar-22@
13:00 UTC

Mar-22 @ 13:00 UTC

TAF CYMT 221139Z 2212/2224 VRB03KT 2SM -SNRA BR OVC005
Wind
  • Variable at 3 KTS
Conditions
Light Snow, Light Rain, Mist
Cloud Levels
  • Overcast at 500' AGL

Mar-22@
12:00 UTC

Mar-22 @ 12:00 UTC

Mar-22@
16:00 UTC

Mar-22 @ 16:00 UTC

TEMPO 2212/2216 6SM -RA BR OVC010

Temporary

Temporary Changes expected for less than half the time period

Conditions
Light Rain, Mist
Cloud Levels
  • Overcast at 1,000' AGL

Mar-22@
13:00 UTC

Mar-22 @ 13:00 UTC

Mar-22@
16:00 UTC

Mar-22 @ 16:00 UTC

BECMG 2213/2215 35010KT

Becoming

Becoming Conditions expected by Fri, Mar 22, 2019 @ 15:00 UTC

Wind
  • 350° at 10 KTS
Conditions
Light Snow, Light Rain, Mist
Cloud Levels
  • Overcast at 500' AGL

Mar-22@
16:00 UTC

Mar-22 @ 16:00 UTC

Mar-22@
20:00 UTC

Mar-22 @ 20:00 UTC

TEMPO 2216/2220 3SM -SN OVC010

Temporary

Temporary Changes expected for less than half the time period

Conditions
Light Snow
Cloud Levels
  • Overcast at 1,000' AGL

Mar-22@
16:00 UTC

Mar-22 @ 16:00 UTC

Mar-22@
20:00 UTC

Mar-22 @ 20:00 UTC

FM221600 35010G20KT 11/2SM -SN OVC006

From

From Standard forecast or significant change

Wind
  • 350° at 10 KTS
  • {Gusting to 20 KTS
Conditions
Light Snow
Cloud Levels
  • Overcast at 600' AGL

Mar-22@
20:00 UTC

Mar-22 @ 20:00 UTC

Mar-23@
00:00 UTC

Mar-23 @ 00:00 UTC

FM222000 36015G25KT P6SM SCT015 OVC025

From

From Standard forecast or significant change

Wind
  • 360° at 15 KTS
  • {Gusting to 25 KTS
Cloud Levels
  • Scattered at 1,500' AGL
  • Overcast at 2,500' AGL

Mar-22@
20:00 UTC

Mar-22 @ 20:00 UTC

Mar-23@
00:00 UTC

Mar-23 @ 00:00 UTC

TEMPO 2220/2224 21/2SM -SN BLSN BKN015 OVC025 RMK FCST BASED ON AUTO OBS. NXT FCST BY 221800Z

Temporary

Temporary Changes expected for less than half the time period

Conditions
Light Snow, Blowing Snow
Cloud Levels
  • Broken at 1,500' AGL
  • Overcast at 2,500' AGL